sensor_id;sensor_type;location;lat;lon;timestamp;pressure;altitude;pressure_sealevel;temperature;humidity
31346;BME280;21711;49.708;18.568;2023-03-21T00:01:57;97320.66;;;10.30;100.00
31346;BME280;21711;49.708;18.568;2023-03-21T00:04:25;97312.72;;;10.40;100.00
31346;BME280;21711;49.708;18.568;2023-03-21T00:06:57;97318.75;;;10.57;100.00
31346;BME280;21711;49.708;18.568;2023-03-21T00:09:24;97319.50;;;10.68;100.00
31346;BME280;21711;49.708;18.568;2023-03-21T00:11:51;97312.88;;;10.70;100.00
31346;BME280;21711;49.708;18.568;2023-03-21T00:14:18;97311.34;;;10.64;99.42
31346;BME280;21711;49.708;18.568;2023-03-21T00:16:46;97307.69;;;10.49;99.82
31346;BME280;21711;49.708;18.568;2023-03-21T00:19:36;97306.09;;;10.38;100.00
31346;BME280;21711;49.708;18.568;2023-03-21T00:22:04;97313.53;;;10.31;100.00
31346;BME280;21711;49.708;18.568;2023-03-21T00:24:35;97308.28;;;10.25;100.00
31346;BME280;21711;49.708;18.568;2023-03-21T00:27:03;97309.56;;;10.44;100.00
31346;BME280;21711;49.708;18.568;2023-03-21T00:29:50;97314.03;;;10.38;100.00
31346;BME280;21711;49.708;18.568;2023-03-21T00:32:18;97307.19;;;10.37;100.00
31346;BME280;21711;49.708;18.568;2023-03-21T00:34:47;97311.97;;;10.30;100.00
31346;BME280;21711;49.708;18.568;2023-03-21T00:37:32;97316.50;;;10.13;100.00
31346;BME280;21711;49.708;18.568;2023-03-21T00:39:59;97325.25;;;9.88;100.00
31346;BME280;21711;49.708;18.568;2023-03-21T00:42:28;97342.16;;;9.66;100.00
31346;BME280;21711;49.708;18.568;2023-03-21T00:44:56;97336.63;;;9.47;100.00
31346;BME280;21711;49.708;18.568;2023-03-21T00:47:23;97328.41;;;9.28;100.00
31346;BME280;21711;49.708;18.568;2023-03-21T00:49:51;97330.03;;;9.44;100.00
31346;BME280;21711;49.708;18.568;2023-03-21T00:52:19;97318.94;;;9.68;100.00
31346;BME280;21711;49.708;18.568;2023-03-21T00:55:06;97306.25;;;9.70;100.00
31346;BME280;21711;49.708;18.568;2023-03-21T00:57:33;97313.66;;;9.73;100.00
31346;BME280;21711;49.708;18.568;2023-03-21T01:00:07;97323.69;;;9.71;100.00
31346;BME280;21711;49.708;18.568;2023-03-21T01:02:37;97328.19;;;9.60;100.00
31346;BME280;21711;49.708;18.568;2023-03-21T01:05:04;97337.69;;;9.77;100.00
31346;BME280;21711;49.708;18.568;2023-03-21T01:07:31;97332.16;;;9.63;100.00
31346;BME280;21711;49.708;18.568;2023-03-21T01:09:59;97334.50;;;9.49;100.00
31346;BME280;21711;49.708;18.568;2023-03-21T01:12:26;97341.66;;;9.64;100.00
31346;BME280;21711;49.708;18.568;2023-03-21T01:14:54;97339.53;;;9.51;100.00
31346;BME280;21711;49.708;18.568;2023-03-21T01:17:22;97345.31;;;9.47;100.00
31346;BME280;21711;49.708;18.568;2023-03-21T01:19:49;97342.44;;;9.59;100.00
31346;BME280;21711;49.708;18.568;2023-03-21T01:22:18;97344.00;;;9.50;100.00
31346;BME280;21711;49.708;18.568;2023-03-21T01:24:47;97344.56;;;9.42;100.00
31346;BME280;21711;49.708;18.568;2023-03-21T01:27:34;97343.75;;;9.46;100.00
31346;BME280;21711;49.708;18.568;2023-03-21T01:30:02;97344.28;;;9.43;100.00
31346;BME280;21711;49.708;18.568;2023-03-21T01:32:34;97333.19;;;9.31;100.00
31346;BME280;21711;49.708;18.568;2023-03-21T01:35:01;97335.81;;;9.31;100.00
31346;BME280;21711;49.708;18.568;2023-03-21T01:37:29;97330.53;;;9.20;100.00
31346;BME280;21711;49.708;18.568;2023-03-21T01:39:58;97329.72;;;9.25;100.00
31346;BME280;21711;49.708;18.568;2023-03-21T01:42:25;97333.66;;;9.07;100.00
31346;BME280;21711;49.708;18.568;2023-03-21T01:45:05;97334.19;;;9.09;100.00
31346;BME280;21711;49.708;18.568;2023-03-21T01:47:38;97337.38;;;9.11;100.00
31346;BME280;21711;49.708;18.568;2023-03-21T01:50:31;97331.53;;;8.99;100.00
31346;BME280;21711;49.708;18.568;2023-03-21T01:53:13;97332.59;;;8.92;100.00
31346;BME280;21711;49.708;18.568;2023-03-21T01:55:41;97336.53;;;8.95;100.00
31346;BME280;21711;49.708;18.568;2023-03-21T01:58:36;97328.31;;;8.86;100.00
31346;BME280;21711;49.708;18.568;2023-03-21T02:01:24;97325.75;;;8.97;100.00
31346;BME280;21711;49.708;18.568;2023-03-21T02:03:55;97326.53;;;9.02;100.00
31346;BME280;21711;49.708;18.568;2023-03-21T02:06:58;97329.19;;;9.13;100.00
31346;BME280;21711;49.708;18.568;2023-03-21T02:09:35;97329.97;;;9.03;100.00
31346;BME280;21711;49.708;18.568;2023-03-21T02:12:06;97326.28;;;9.09;100.00
31346;BME280;21711;49.708;18.568;2023-03-21T02:14:35;97320.22;;;9.14;100.00
31346;BME280;21711;49.708;18.568;2023-03-21T02:17:27;97319.13;;;8.94;100.00
31346;BME280;21711;49.708;18.568;2023-03-21T02:22:59;97311.50;;;8.98;100.00
31346;BME280;21711;49.708;18.568;2023-03-21T02:39:24;97308.84;;;9.03;100.00
31346;BME280;21711;49.708;18.568;2023-03-21T02:42:32;97307.53;;;9.00;100.00
31346;BME280;21711;49.708;18.568;2023-03-21T02:45:20;97302.78;;;9.07;100.00
31346;BME280;21711;49.708;18.568;2023-03-21T02:47:58;97304.66;;;9.12;100.00
31346;BME280;21711;49.708;18.568;2023-03-21T02:50:51;97307.03;;;9.08;100.00
31346;BME280;21711;49.708;18.568;2023-03-21T02:53:21;97310.75;;;9.28;100.00
31346;BME280;21711;49.708;18.568;2023-03-21T02:55:50;97303.34;;;9.20;100.00
31346;BME280;21711;49.708;18.568;2023-03-21T02:58:20;97297.81;;;9.16;100.00
31346;BME280;21711;49.708;18.568;2023-03-21T03:00:54;97298.06;;;9.15;100.00
31346;BME280;21711;49.708;18.568;2023-03-21T03:03:32;97305.16;;;9.04;100.00
31346;BME280;21711;49.708;18.568;2023-03-21T03:06:08;97302.78;;;9.02;100.00
31346;BME280;21711;49.708;18.568;2023-03-21T03:11:41;97293.31;;;9.17;100.00
31346;BME280;21711;49.708;18.568;2023-03-21T03:17:21;97295.97;;;9.22;100.00
31346;BME280;21711;49.708;18.568;2023-03-21T03:23:04;97294.13;;;9.28;100.00
31346;BME280;21711;49.708;18.568;2023-03-21T03:25:51;97295.16;;;9.27;100.00
31346;BME280;21711;49.708;18.568;2023-03-21T03:28:24;97294.13;;;9.33;100.00
31346;BME280;21711;49.708;18.568;2023-03-21T03:30:53;97286.19;;;9.38;100.00
31346;BME280;21711;49.708;18.568;2023-03-21T03:33:43;97292.78;;;9.30;100.00
31346;BME280;21711;49.708;18.568;2023-03-21T03:36:13;97293.03;;;9.08;100.00
31346;BME280;21711;49.708;18.568;2023-03-21T03:38:58;97291.22;;;9.08;100.00
31346;BME280;21711;49.708;18.568;2023-03-21T03:41:27;97285.13;;;9.24;100.00
31346;BME280;21711;49.708;18.568;2023-03-21T03:44:02;97283.56;;;9.17;100.00
31346;BME280;21711;49.708;18.568;2023-03-21T03:47:10;97279.59;;;9.20;100.00
31346;BME280;21711;49.708;18.568;2023-03-21T03:52:53;97282.78;;;9.22;100.00
31346;BME280;21711;49.708;18.568;2023-03-21T03:55:28;97281.97;;;9.06;100.00
31346;BME280;21711;49.708;18.568;2023-03-21T03:58:09;97302.78;;;9.02;100.00
31346;BME280;21711;49.708;18.568;2023-03-21T04:00:51;97299.91;;;9.14;100.00
31346;BME280;21711;49.708;18.568;2023-03-21T04:03:18;97305.16;;;9.04;100.00
31346;BME280;21711;49.708;18.568;2023-03-21T04:05:45;97306.25;;;9.29;100.00
31346;BME280;21711;49.708;18.568;2023-03-21T04:08:14;97303.91;;;9.32;100.00
31346;BME280;21711;49.708;18.568;2023-03-21T04:10:46;97311.00;;;9.32;100.00
31346;BME280;21711;49.708;18.568;2023-03-21T04:13:14;97306.28;;;9.34;100.00
31346;BME280;21711;49.708;18.568;2023-03-21T04:15:58;97312.06;;;9.31;100.00
31346;BME280;21711;49.708;18.568;2023-03-21T04:18:26;97303.09;;;9.42;100.00
31346;BME280;21711;49.708;18.568;2023-03-21T04:20:53;97297.56;;;9.28;100.00
31346;BME280;21711;49.708;18.568;2023-03-21T04:23:20;97301.75;;;9.14;100.00
31346;BME280;21711;49.708;18.568;2023-03-21T04:25:50;97300.44;;;9.16;100.00
31346;BME280;21711;49.708;18.568;2023-03-21T04:28:36;97293.84;;;9.24;100.00
31346;BME280;21711;49.708;18.568;2023-03-21T04:31:12;97295.16;;;9.37;100.00
31346;BME280;21711;49.708;18.568;2023-03-21T04:33:59;97291.22;;;9.34;100.00
31346;BME280;21711;49.708;18.568;2023-03-21T04:36:27;97289.06;;;9.00;100.00
31346;BME280;21711;49.708;18.568;2023-03-21T04:39:06;97286.94;;;8.81;100.00
31346;BME280;21711;49.708;18.568;2023-03-21T04:41:42;97284.03;;;8.88;100.00
31346;BME280;21711;49.708;18.568;2023-03-21T04:44:10;97280.84;;;8.86;100.00
31346;BME280;21711;49.708;18.568;2023-03-21T04:46:38;97288.81;;;8.97;100.00
31346;BME280;21711;49.708;18.568;2023-03-21T04:49:06;97283.03;;;9.15;100.00
31346;BME280;21711;49.708;18.568;2023-03-21T04:51:34;97288.84;;;9.28;100.00
31346;BME280;21711;49.708;18.568;2023-03-21T04:54:03;97283.81;;;9.26;100.00
31346;BME280;21711;49.708;18.568;2023-03-21T04:56:31;97291.47;;;9.07;100.00
31346;BME280;21711;49.708;18.568;2023-03-21T04:59:04;97290.88;;;8.84;100.00
31346;BME280;21711;49.708;18.568;2023-03-21T05:01:32;97290.38;;;8.82;100.00
31346;BME280;21711;49.708;18.568;2023-03-21T05:04:00;97298.31;;;9.08;100.00
31346;BME280;21711;49.708;18.568;2023-03-21T05:06:30;97298.31;;;9.18;100.00
31346;BME280;21711;49.708;18.568;2023-03-21T05:08:59;97295.44;;;9.20;100.00
31346;BME280;21711;49.708;18.568;2023-03-21T05:11:29;97305.19;;;9.14;100.00
31346;BME280;21711;49.708;18.568;2023-03-21T05:13:59;97300.19;;;9.13;100.00
31346;BME280;21711;49.708;18.568;2023-03-21T05:16:27;97305.72;;;9.06;100.00
31346;BME280;21711;49.708;18.568;2023-03-21T05:18:58;97308.59;;;9.04;100.00
31346;BME280;21711;49.708;18.568;2023-03-21T05:21:31;97309.41;;;9.10;100.00
31346;BME280;21711;49.708;18.568;2023-03-21T05:24:26;97304.66;;;9.17;100.00
31346;BME280;21711;49.708;18.568;2023-03-21T05:26:54;97304.16;;;9.26;100.00
31346;BME280;21711;49.708;18.568;2023-03-21T05:29:25;97301.75;;;9.19;100.00
31346;BME280;21711;49.708;18.568;2023-03-21T05:32:04;97294.91;;;9.13;100.00
31346;BME280;21711;49.708;18.568;2023-03-21T05:34:31;97298.06;;;9.20;100.00
31346;BME280;21711;49.708;18.568;2023-03-21T05:37:00;97297.56;;;9.28;100.00
31346;BME280;21711;49.708;18.568;2023-03-21T05:39:38;97295.16;;;9.27;100.00
31346;BME280;21711;49.708;18.568;2023-03-21T05:42:12;97293.06;;;9.29;100.00
31346;BME280;21711;49.708;18.568;2023-03-21T05:44:39;97306.78;;;9.26;100.00
31346;BME280;21711;49.708;18.568;2023-03-21T05:47:08;97304.38;;;8.98;100.00
31346;BME280;21711;49.708;18.568;2023-03-21T05:49:40;97299.59;;;8.90;100.00
31346;BME280;21711;49.708;18.568;2023-03-21T05:52:08;97302.81;;;9.23;100.00
31346;BME280;21711;49.708;18.568;2023-03-21T05:54:35;97305.72;;;9.47;100.00
31346;BME280;21711;49.708;18.568;2023-03-21T05:57:03;97305.47;;;9.59;100.00
31346;BME280;21711;49.708;18.568;2023-03-21T05:59:47;97306.50;;;9.74;100.00
31346;BME280;21711;49.708;18.568;2023-03-21T06:02:16;97308.34;;;9.89;100.00
31346;BME280;21711;49.708;18.568;2023-03-21T06:04:45;97306.47;;;10.00;100.00
31346;BME280;21711;49.708;18.568;2023-03-21T06:07:12;97309.13;;;10.00;100.00
31346;BME280;21711;49.708;18.568;2023-03-21T06:09:40;97308.84;;;10.12;100.00
31346;BME280;21711;49.708;18.568;2023-03-21T06:12:07;97309.34;;;10.24;100.00
31346;BME280;21711;49.708;18.568;2023-03-21T06:14:59;97304.06;;;10.14;100.00
31346;BME280;21711;49.708;18.568;2023-03-21T06:17:33;97304.03;;;10.35;100.00
31346;BME280;21711;49.708;18.568;2023-03-21T06:20:06;97302.13;;;10.56;100.00
31346;BME280;21711;49.708;18.568;2023-03-21T06:22:44;97304.91;;;10.81;100.00
31346;BME280;21711;49.708;18.568;2023-03-21T06:25:12;97308.56;;;10.90;100.00
31346;BME280;21711;49.708;18.568;2023-03-21T06:27:39;97300.28;;;11.02;100.00
31346;BME280;21711;49.708;18.568;2023-03-21T06:30:08;97309.88;;;10.87;100.00
31346;BME280;21711;49.708;18.568;2023-03-21T06:32:44;97310.81;;;11.12;100.00
31346;BME280;21711;49.708;18.568;2023-03-21T06:35:16;97305.03;;;11.45;100.00
31346;BME280;21711;49.708;18.568;2023-03-21T06:37:43;97307.56;;;11.90;100.00
31346;BME280;21711;49.708;18.568;2023-03-21T06:40:12;97316.97;;;12.56;100.00
31346;BME280;21711;49.708;18.568;2023-03-21T06:42:40;97310.19;;;12.44;100.00
31346;BME280;21711;49.708;18.568;2023-03-21T06:45:10;97318.53;;;12.32;100.00
31346;BME280;21711;49.708;18.568;2023-03-21T06:47:37;97315.19;;;12.27;100.00
31346;BME280;21711;49.708;18.568;2023-03-21T06:50:11;97325.16;;;12.59;100.00
31346;BME280;21711;49.708;18.568;2023-03-21T06:52:41;97324.34;;;13.02;100.00
31346;BME280;21711;49.708;18.568;2023-03-21T06:55:08;97323.47;;;12.88;100.00
31346;BME280;21711;49.708;18.568;2023-03-21T06:57:36;97328.63;;;12.79;100.00
31346;BME280;21711;49.708;18.568;2023-03-21T07:00:05;97334.72;;;12.55;100.00
31346;BME280;21711;49.708;18.568;2023-03-21T07:02:37;97328.19;;;12.47;100.00
31346;BME280;21711;49.708;18.568;2023-03-21T07:05:09;97329.38;;;12.60;100.00
31346;BME280;21711;49.708;18.568;2023-03-21T07:07:38;97338.47;;;12.54;100.00
31346;BME280;21711;49.708;18.568;2023-03-21T07:10:07;97341.56;;;13.05;100.00
31346;BME280;21711;49.708;18.568;2023-03-21T07:12:43;97342.75;;;13.32;100.00
31346;BME280;21711;49.708;18.568;2023-03-21T07:15:22;97341.13;;;13.17;100.00
31346;BME280;21711;49.708;18.568;2023-03-21T07:17:50;97344.03;;;13.35;97.51
31346;BME280;21711;49.708;18.568;2023-03-21T07:20:18;97344.63;;;13.12;97.67
31346;BME280;21711;49.708;18.568;2023-03-21T07:22:45;97348.38;;;13.11;100.00
31346;BME280;21711;49.708;18.568;2023-03-21T07:25:13;97349.78;;;13.23;100.00
31346;BME280;21711;49.708;18.568;2023-03-21T07:27:40;97340.25;;;13.02;100.00
31346;BME280;21711;49.708;18.568;2023-03-21T07:30:09;97342.13;;;13.02;100.00
31346;BME280;21711;49.708;18.568;2023-03-21T07:32:37;97346.78;;;12.91;100.00
31346;BME280;21711;49.708;18.568;2023-03-21T07:35:06;97347.81;;;12.71;100.00
31346;BME280;21711;49.708;18.568;2023-03-21T07:37:34;97347.16;;;12.60;100.00
31346;BME280;21711;49.708;18.568;2023-03-21T07:40:05;97349.47;;;12.67;100.00
31346;BME280;21711;49.708;18.568;2023-03-21T07:42:39;97348.19;;;12.83;100.00
31346;BME280;21711;49.708;18.568;2023-03-21T07:45:09;97345.75;;;12.87;100.00
31346;BME280;21711;49.708;18.568;2023-03-21T07:47:38;97354.59;;;12.58;100.00
31346;BME280;21711;49.708;18.568;2023-03-21T07:50:06;97348.34;;;12.24;100.00
31346;BME280;21711;49.708;18.568;2023-03-21T07:52:33;97351.44;;;12.31;100.00
31346;BME280;21711;49.708;18.568;2023-03-21T07:55:01;97356.28;;;12.48;100.00
31346;BME280;21711;49.708;18.568;2023-03-21T07:57:28;97351.78;;;12.49;100.00
31346;BME280;21711;49.708;18.568;2023-03-21T07:59:55;97351.56;;;12.21;100.00
31346;BME280;21711;49.708;18.568;2023-03-21T08:02:22;97353.66;;;12.24;100.00
31346;BME280;21711;49.708;18.568;2023-03-21T08:04:50;97354.81;;;12.13;100.00
31346;BME280;21711;49.708;18.568;2023-03-21T08:07:17;97359.47;;;11.91;100.00
31346;BME280;21711;49.708;18.568;2023-03-21T08:09:44;97355.88;;;11.77;100.00
31346;BME280;21711;49.708;18.568;2023-03-21T08:12:11;97356.22;;;11.70;100.00
31346;BME280;21711;49.708;18.568;2023-03-21T08:14:38;97349.16;;;11.60;100.00
31346;BME280;21711;49.708;18.568;2023-03-21T08:17:05;97365.84;;;11.55;100.00
31346;BME280;21711;49.708;18.568;2023-03-21T08:19:33;97355.75;;;11.63;100.00
31346;BME280;21711;49.708;18.568;2023-03-21T08:22:00;97358.84;;;11.70;100.00
31346;BME280;21711;49.708;18.568;2023-03-21T08:24:28;97361.72;;;11.74;100.00
31346;BME280;21711;49.708;18.568;2023-03-21T08:26:55;97362.44;;;11.84;100.00
31346;BME280;21711;49.708;18.568;2023-03-21T08:29:23;97359.94;;;11.69;100.00
31346;BME280;21711;49.708;18.568;2023-03-21T08:31:50;97362.31;;;11.70;100.00
31346;BME280;21711;49.708;18.568;2023-03-21T08:34:18;97361.66;;;11.49;100.00
31346;BME280;21711;49.708;18.568;2023-03-21T08:36:45;97366.41;;;11.52;100.00
31346;BME280;21711;49.708;18.568;2023-03-21T08:39:13;97372.22;;;11.54;100.00
31346;BME280;21711;49.708;18.568;2023-03-21T08:41:40;97367.91;;;11.24;100.00
31346;BME280;21711;49.708;18.568;2023-03-21T08:44:07;97374.63;;;11.11;100.00
31346;BME280;21711;49.708;18.568;2023-03-21T08:46:35;97373.59;;;11.01;100.00
31346;BME280;21711;49.708;18.568;2023-03-21T08:49:02;97380.78;;;10.90;100.00
31346;BME280;21711;49.708;18.568;2023-03-21T08:51:29;97381.63;;;10.75;100.00
31346;BME280;21711;49.708;18.568;2023-03-21T08:53:57;97383.63;;;11.10;100.00
31346;BME280;21711;49.708;18.568;2023-03-21T08:56:24;97382.78;;;11.60;100.00
31346;BME280;21711;49.708;18.568;2023-03-21T08:58:52;97381.44;;;11.62;100.00
31346;BME280;21711;49.708;18.568;2023-03-21T09:01:19;97386.88;;;11.41;100.00
31346;BME280;21711;49.708;18.568;2023-03-21T09:03:46;97392.44;;;11.40;100.00
31346;BME280;21711;49.708;18.568;2023-03-21T09:06:13;97386.88;;;10.86;100.00
31346;BME280;21711;49.708;18.568;2023-03-21T09:08:41;97389.31;;;11.27;100.00
31346;BME280;21711;49.708;18.568;2023-03-21T09:11:09;97396.69;;;11.76;100.00
31346;BME280;21711;49.708;18.568;2023-03-21T09:13:36;97391.66;;;12.14;100.00
31346;BME280;21711;49.708;18.568;2023-03-21T09:16:03;97391.59;;;12.19;100.00
31346;BME280;21711;49.708;18.568;2023-03-21T09:18:31;97399.75;;;12.53;100.00
31346;BME280;21711;49.708;18.568;2023-03-21T09:21:21;97400.72;;;12.86;100.00
31346;BME280;21711;49.708;18.568;2023-03-21T09:23:49;97399.31;;;13.33;100.00
31346;BME280;21711;49.708;18.568;2023-03-21T09:26:19;97398.97;;;13.78;94.01
31346;BME280;21711;49.708;18.568;2023-03-21T09:28:46;97400.88;;;14.39;92.39
31346;BME280;21711;49.708;18.568;2023-03-21T09:31:14;97408.72;;;14.91;87.64
31346;BME280;21711;49.708;18.568;2023-03-21T09:33:45;97407.63;;;14.92;86.69
31346;BME280;21711;49.708;18.568;2023-03-21T09:36:12;97403.75;;;14.70;86.52
31346;BME280;21711;49.708;18.568;2023-03-21T09:38:43;97408.31;;;14.84;86.27
31346;BME280;21711;49.708;18.568;2023-03-21T09:47:26;97408.50;;;15.75;78.64
31346;BME280;21711;49.708;18.568;2023-03-21T09:50:18;97401.50;;;15.43;78.10
31346;BME280;21711;49.708;18.568;2023-03-21T09:52:50;97411.09;;;15.67;80.27
31346;BME280;21711;49.708;18.568;2023-03-21T09:55:27;97403.75;;;16.18;75.56
31346;BME280;21711;49.708;18.568;2023-03-21T10:00:29;97410.91;;;17.21;67.52
31346;BME280;21711;49.708;18.568;2023-03-21T10:03:03;97400.84;;;17.36;64.86
31346;BME280;21711;49.708;18.568;2023-03-21T10:05:33;97406.50;;;17.34;66.87
31346;BME280;21711;49.708;18.568;2023-03-21T10:08:19;97406.78;;;17.06;68.17
31346;BME280;21711;49.708;18.568;2023-03-21T10:10:55;97411.69;;;16.73;68.90
31346;BME280;21711;49.708;18.568;2023-03-21T10:13:31;97401.06;;;16.09;70.87
31346;BME280;21711;49.708;18.568;2023-03-21T10:16:16;97405.72;;;16.03;72.90
31346;BME280;21711;49.708;18.568;2023-03-21T10:18:47;97406.91;;;16.20;71.73
31346;BME280;21711;49.708;18.568;2023-03-21T10:21:22;97406.50;;;16.04;73.05
31346;BME280;21711;49.708;18.568;2023-03-21T10:24:11;97397.06;;;15.98;76.07
31346;BME280;21711;49.708;18.568;2023-03-21T10:26:39;97396.22;;;16.43;72.31
31346;BME280;21711;49.708;18.568;2023-03-21T10:29:09;97390.88;;;16.52;70.66
31346;BME280;21711;49.708;18.568;2023-03-21T10:31:36;97393.72;;;15.92;72.53
31346;BME280;21711;49.708;18.568;2023-03-21T10:34:09;97390.75;;;16.16;71.93
31346;BME280;21711;49.708;18.568;2023-03-21T10:36:39;97390.38;;;16.41;71.06
31346;BME280;21711;49.708;18.568;2023-03-21T10:41:32;97391.41;;;16.63;70.84
31346;BME280;21711;49.708;18.568;2023-03-21T10:44:10;97391.34;;;17.03;69.77
31346;BME280;21711;49.708;18.568;2023-03-21T10:46:37;97397.13;;;16.79;70.39
31346;BME280;21711;49.708;18.568;2023-03-21T10:49:07;97392.31;;;16.17;70.46
31346;BME280;21711;49.708;18.568;2023-03-21T10:51:36;97389.34;;;15.73;75.28
31346;BME280;21711;49.708;18.568;2023-03-21T10:54:12;97392.81;;;15.00;75.38
31346;BME280;21711;49.708;18.568;2023-03-21T10:56:49;97390.56;;;14.79;77.71
31346;BME280;21711;49.708;18.568;2023-03-21T10:59:21;97383.63;;;14.36;79.46
31346;BME280;21711;49.708;18.568;2023-03-21T11:01:51;97388.16;;;14.22;80.71
31346;BME280;21711;49.708;18.568;2023-03-21T11:04:26;97390.97;;;14.11;83.62
31346;BME280;21711;49.708;18.568;2023-03-21T11:07:03;97386.78;;;13.91;80.91
31346;BME280;21711;49.708;18.568;2023-03-21T11:09:50;97379.28;;;13.79;81.80
31346;BME280;21711;49.708;18.568;2023-03-21T11:12:37;97393.44;;;13.36;84.48
31346;BME280;21711;49.708;18.568;2023-03-21T11:15:56;97390.66;;;12.83;87.14
31346;BME280;21711;49.708;18.568;2023-03-21T11:18:27;97391.25;;;12.99;86.05
31346;BME280;21711;49.708;18.568;2023-03-21T11:21:05;97389.16;;;12.96;86.94
31346;BME280;21711;49.708;18.568;2023-03-21T11:23:46;97388.41;;;13.73;83.12
31346;BME280;21711;49.708;18.568;2023-03-21T11:26:30;97382.91;;;14.16;79.86
31346;BME280;21711;49.708;18.568;2023-03-21T11:29:00;97385.19;;;14.09;79.48
31346;BME280;21711;49.708;18.568;2023-03-21T11:31:38;97393.09;;;14.56;75.92
31346;BME280;21711;49.708;18.568;2023-03-21T11:34:08;97389.00;;;14.78;75.58
31346;BME280;21711;49.708;18.568;2023-03-21T11:36:37;97393.06;;;14.76;75.64
31346;BME280;21711;49.708;18.568;2023-03-21T11:39:29;97398.13;;;15.00;75.98
31346;BME280;21711;49.708;18.568;2023-03-21T11:41:57;97387.78;;;14.70;75.14
31346;BME280;21711;49.708;18.568;2023-03-21T11:44:38;97381.38;;;14.43;76.34
31346;BME280;21711;49.708;18.568;2023-03-21T11:47:10;97379.41;;;14.35;76.67
31346;BME280;21711;49.708;18.568;2023-03-21T11:49:37;97369.81;;;14.06;75.52
31346;BME280;21711;49.708;18.568;2023-03-21T11:52:42;97371.63;;;14.53;75.40
31346;BME280;21711;49.708;18.568;2023-03-21T11:55:40;97366.63;;;13.71;78.95
31346;BME280;21711;49.708;18.568;2023-03-21T11:58:36;97372.88;;;14.27;77.92
31346;BME280;21711;49.708;18.568;2023-03-21T12:24:19;97369.75;;;14.81;75.70
31346;BME280;21711;49.708;18.568;2023-03-21T12:35:23;97348.34;;;14.72;77.04
31346;BME280;21711;49.708;18.568;2023-03-21T12:43:55;97338.31;;;14.41;77.51
31346;BME280;21711;49.708;18.568;2023-03-21T12:49:47;97340.41;;;14.30;77.70
31346;BME280;21711;49.708;18.568;2023-03-21T12:52:23;97334.72;;;14.04;77.68
31346;BME280;21711;49.708;18.568;2023-03-21T12:55:00;97334.16;;;14.07;78.08
31346;BME280;21711;49.708;18.568;2023-03-21T12:57:33;97322.72;;;14.06;78.59
31346;BME280;21711;49.708;18.568;2023-03-21T13:00:42;97332.28;;;14.22;79.75
31346;BME280;21711;49.708;18.568;2023-03-21T13:03:39;97330.22;;;14.18;78.62
31346;BME280;21711;49.708;18.568;2023-03-21T13:06:13;97333.19;;;14.31;77.97
31346;BME280;21711;49.708;18.568;2023-03-21T13:08:59;97334.06;;;14.40;78.35
31346;BME280;21711;49.708;18.568;2023-03-21T13:11:30;97328.19;;;14.43;78.69
31346;BME280;21711;49.708;18.568;2023-03-21T13:14:07;97323.44;;;14.40;77.72
31346;BME280;21711;49.708;18.568;2023-03-21T13:17:18;97330.34;;;14.55;77.21
31346;BME280;21711;49.708;18.568;2023-03-21T13:19:53;97327.19;;;14.39;77.25
31346;BME280;21711;49.708;18.568;2023-03-21T13:22:28;97316.47;;;14.30;76.95
31346;BME280;21711;49.708;18.568;2023-03-21T13:25:19;97313.16;;;14.05;78.25
31346;BME280;21711;49.708;18.568;2023-03-21T13:27:53;97319.22;;;14.39;78.66
31346;BME280;21711;49.708;18.568;2023-03-21T13:30:24;97319.19;;;14.53;76.90
31346;BME280;21711;49.708;18.568;2023-03-21T13:33:09;97322.47;;;14.50;74.94
31346;BME280;21711;49.708;18.568;2023-03-21T13:35:40;97313.78;;;14.16;76.58
31346;BME280;21711;49.708;18.568;2023-03-21T13:38:41;97314.56;;;14.03;77.05
31346;BME280;21711;49.708;18.568;2023-03-21T13:41:34;97317.94;;;14.37;75.92
31346;BME280;21711;49.708;18.568;2023-03-21T13:44:05;97321.28;;;14.42;75.72
31346;BME280;21711;49.708;18.568;2023-03-21T13:46:43;97316.25;;;14.41;75.04
31346;BME280;21711;49.708;18.568;2023-03-21T13:49:37;97305.19;;;14.05;75.49
31346;BME280;21711;49.708;18.568;2023-03-21T13:57:05;97309.81;;;13.86;75.36
31346;BME280;21711;49.708;18.568;2023-03-21T13:59:43;97302.44;;;13.97;74.65
31346;BME280;21711;49.708;18.568;2023-03-21T14:04:42;97300.53;;;13.69;76.63
31346;BME280;21711;49.708;18.568;2023-03-21T14:07:40;97297.25;;;13.72;75.40
31346;BME280;21711;49.708;18.568;2023-03-21T14:10:40;97288.53;;;13.72;75.09
31346;BME280;21711;49.708;18.568;2023-03-21T14:13:15;97297.22;;;14.05;74.56
31346;BME280;21711;49.708;18.568;2023-03-21T14:15:58;97293.97;;;14.09;73.62
31346;BME280;21711;49.708;18.568;2023-03-21T14:18:28;97292.22;;;14.18;74.40
31346;BME280;21711;49.708;18.568;2023-03-21T14:21:22;97294.28;;;14.07;74.61
31346;BME280;21711;49.708;18.568;2023-03-21T14:24:24;97300.56;;;14.25;73.95
31346;BME280;21711;49.708;18.568;2023-03-21T14:26:53;97290.81;;;13.92;73.83
31346;BME280;21711;49.708;18.568;2023-03-21T14:29:32;97286.38;;;13.88;76.24
31346;BME280;21711;49.708;18.568;2023-03-21T14:32:01;97286.78;;;13.81;75.60
31346;BME280;21711;49.708;18.568;2023-03-21T14:34:33;97285.31;;;13.89;74.97
31346;BME280;21711;49.708;18.568;2023-03-21T14:37:02;97281.16;;;13.97;76.10
31346;BME280;21711;49.708;18.568;2023-03-21T14:39:32;97286.69;;;14.00;74.39
31346;BME280;21711;49.708;18.568;2023-03-21T14:42:13;97275.84;;;13.97;74.48
31346;BME280;21711;49.708;18.568;2023-03-21T14:44:48;97277.00;;;13.76;74.90
31346;BME280;21711;49.708;18.568;2023-03-21T14:47:24;97272.28;;;14.01;74.62
31346;BME280;21711;49.708;18.568;2023-03-21T14:49:52;97284.44;;;14.07;73.96
31346;BME280;21711;49.708;18.568;2023-03-21T14:52:31;97279.19;;;13.74;73.97